Flight Briefing for CPX781

Departure Arrival
Taiwan Taoyuan International Airport (RCTP)
Click to view FAA NOTAMS
Incheon International Airport (RKSI)
Click to view FAA NOTAMS
Departure Time Arrival Time
N/A N/A
Aircraft Distance
MD-11SF 788nm
Departure METAR Arrival METAR
RCTP 152030Z 05012KT 8000 SCT006 BKN009 BKN015 18/17 Q1020 NOSIG RMK A3013 RKSI 152030Z 34010KT 5000 -SN BR BKN030 M04/M09 Q1024 NOSIG
Suggested Route
PIANO1C PIANO L3 SALMI B576 SEL SEL1T


View recent IFR Routes data
Notes



Charts and Procedures

Charts for RCTP
No chart available
Charts for RKSI
No chart available

Ventusky Weather